Cornville, Arizona
Current Conditions -  °F | °C
As of 2:55 PM on Tuesday 21 Oct 2014 (Local Time) from KSEZ Reporting Station
Clear Clear  
Wind Chill: 77°   Ceiling: Unl
Heat Index: 77°   Visibility: 10mi
Dew Point: 37°   Wind: 0mph
Humidity: 24%   Direction: NA
Pressure: 30"   Gusts: NA
Location:  34.72°N, 111.92°W
Report Text: KSEZ 212155Z AUTO 00000KT 10SM CLR 25/03 A3000 RMK AO2
Loading
Personal Weather Stations






























Interactive Weather Map
Tropical Storm Tracking
New forecast layout! Learn more

10-Day Weather Forecast

Advertisements
Track Severe Weather on mobile